sensor_id;sensor_type;location;lat;lon;timestamp;P1;durP1;ratioP1;P2;durP2;ratioP2
2386;SDS011;49473;50.772;8.768;2023-07-16T00:00:29;8.23;;;7.50;;
2386;SDS011;49473;50.772;8.768;2023-07-16T00:02:56;8.07;;;7.27;;
2386;SDS011;49473;50.772;8.768;2023-07-16T00:05:22;8.07;;;7.30;;
2386;SDS011;49473;50.772;8.768;2023-07-16T00:07:49;7.00;;;6.40;;
2386;SDS011;49473;50.772;8.768;2023-07-16T00:10:16;6.30;;;5.80;;
2386;SDS011;49473;50.772;8.768;2023-07-16T00:12:43;7.10;;;6.50;;
2386;SDS011;49473;50.772;8.768;2023-07-16T00:15:11;6.60;;;5.90;;
2386;SDS011;49473;50.772;8.768;2023-07-16T00:17:37;6.10;;;5.60;;
2386;SDS011;49473;50.772;8.768;2023-07-16T00:20:05;6.23;;;5.70;;
2386;SDS011;49473;50.772;8.768;2023-07-16T00:22:32;5.50;;;5.10;;
2386;SDS011;49473;50.772;8.768;2023-07-16T00:24:59;5.60;;;5.10;;
2386;SDS011;49473;50.772;8.768;2023-07-16T00:27:26;5.10;;;4.70;;
2386;SDS011;49473;50.772;8.768;2023-07-16T00:29:53;8.63;;;5.00;;
2386;SDS011;49473;50.772;8.768;2023-07-16T00:32:21;6.87;;;4.63;;
2386;SDS011;49473;50.772;8.768;2023-07-16T00:34:48;5.80;;;5.30;;
2386;SDS011;49473;50.772;8.768;2023-07-16T00:37:14;5.00;;;4.70;;
2386;SDS011;49473;50.772;8.768;2023-07-16T00:39:41;5.00;;;4.60;;
2386;SDS011;49473;50.772;8.768;2023-07-16T00:42:08;6.90;;;5.50;;
2386;SDS011;49473;50.772;8.768;2023-07-16T00:44:35;4.97;;;4.60;;
2386;SDS011;49473;50.772;8.768;2023-07-16T00:47:02;5.20;;;4.80;;
2386;SDS011;49473;50.772;8.768;2023-07-16T00:49:30;4.90;;;4.50;;
2386;SDS011;49473;50.772;8.768;2023-07-16T00:51:57;5.83;;;5.33;;
2386;SDS011;49473;50.772;8.768;2023-07-16T00:54:25;6.00;;;5.50;;
2386;SDS011;49473;50.772;8.768;2023-07-16T00:56:52;5.23;;;4.83;;
2386;SDS011;49473;50.772;8.768;2023-07-16T00:59:19;6.83;;;5.10;;
2386;SDS011;49473;50.772;8.768;2023-07-16T01:01:46;5.33;;;4.83;;
2386;SDS011;49473;50.772;8.768;2023-07-16T01:04:13;6.07;;;5.33;;
2386;SDS011;49473;50.772;8.768;2023-07-16T01:06:41;4.50;;;4.13;;
2386;SDS011;49473;50.772;8.768;2023-07-16T01:09:13;3.90;;;3.23;;
2386;SDS011;49473;50.772;8.768;2023-07-16T01:11:42;3.50;;;3.13;;
2386;SDS011;49473;50.772;8.768;2023-07-16T01:14:10;5.63;;;3.50;;
2386;SDS011;49473;50.772;8.768;2023-07-16T01:16:38;4.70;;;3.03;;
2386;SDS011;49473;50.772;8.768;2023-07-16T01:19:06;3.60;;;3.30;;
2386;SDS011;49473;50.772;8.768;2023-07-16T01:21:34;5.13;;;2.93;;
2386;SDS011;49473;50.772;8.768;2023-07-16T01:24:17;5.50;;;3.30;;
2386;SDS011;49473;50.772;8.768;2023-07-16T01:27:17;3.57;;;3.27;;
2386;SDS011;49473;50.772;8.768;2023-07-16T01:30:02;3.80;;;3.17;;
2386;SDS011;49473;50.772;8.768;2023-07-16T01:32:30;3.40;;;3.10;;
2386;SDS011;49473;50.772;8.768;2023-07-16T01:34:57;10.87;;;4.17;;
2386;SDS011;49473;50.772;8.768;2023-07-16T01:37:25;4.40;;;2.90;;
2386;SDS011;49473;50.772;8.768;2023-07-16T01:39:52;3.40;;;3.20;;
2386;SDS011;49473;50.772;8.768;2023-07-16T01:42:19;5.83;;;3.37;;
2386;SDS011;49473;50.772;8.768;2023-07-16T01:44:46;3.30;;;3.00;;
2386;SDS011;49473;50.772;8.768;2023-07-16T01:47:15;3.47;;;2.77;;
2386;SDS011;49473;50.772;8.768;2023-07-16T01:49:49;5.83;;;3.93;;
2386;SDS011;49473;50.772;8.768;2023-07-16T01:52:16;4.20;;;3.20;;
2386;SDS011;49473;50.772;8.768;2023-07-16T01:54:43;3.13;;;2.93;;
2386;SDS011;49473;50.772;8.768;2023-07-16T01:57:09;2.73;;;2.50;;
2386;SDS011;49473;50.772;8.768;2023-07-16T01:59:36;3.27;;;2.97;;
2386;SDS011;49473;50.772;8.768;2023-07-16T02:02:03;3.17;;;2.60;;
2386;SDS011;49473;50.772;8.768;2023-07-16T02:04:32;2.83;;;2.63;;
2386;SDS011;49473;50.772;8.768;2023-07-16T02:06:58;3.93;;;2.70;;
2386;SDS011;49473;50.772;8.768;2023-07-16T02:09:25;2.90;;;2.30;;
2386;SDS011;49473;50.772;8.768;2023-07-16T02:11:52;8.53;;;2.83;;
2386;SDS011;49473;50.772;8.768;2023-07-16T02:14:19;4.10;;;2.73;;
2386;SDS011;49473;50.772;8.768;2023-07-16T02:16:45;2.77;;;2.40;;
2386;SDS011;49473;50.772;8.768;2023-07-16T02:19:12;3.63;;;2.40;;
2386;SDS011;49473;50.772;8.768;2023-07-16T02:21:40;7.73;;;3.13;;
2386;SDS011;49473;50.772;8.768;2023-07-16T02:24:07;3.13;;;2.67;;
2386;SDS011;49473;50.772;8.768;2023-07-16T02:26:33;4.87;;;2.30;;
2386;SDS011;49473;50.772;8.768;2023-07-16T02:29:00;4.60;;;2.93;;
2386;SDS011;49473;50.772;8.768;2023-07-16T02:31:27;5.63;;;2.80;;
2386;SDS011;49473;50.772;8.768;2023-07-16T02:33:54;2.87;;;2.37;;
2386;SDS011;49473;50.772;8.768;2023-07-16T02:36:21;5.13;;;2.40;;
2386;SDS011;49473;50.772;8.768;2023-07-16T02:38:49;3.23;;;2.60;;
2386;SDS011;49473;50.772;8.768;2023-07-16T02:41:16;2.80;;;2.60;;
2386;SDS011;49473;50.772;8.768;2023-07-16T02:43:44;2.90;;;2.67;;
2386;SDS011;49473;50.772;8.768;2023-07-16T02:46:12;6.87;;;2.40;;
2386;SDS011;49473;50.772;8.768;2023-07-16T02:48:38;4.57;;;2.60;;
2386;SDS011;49473;50.772;8.768;2023-07-16T02:51:05;3.60;;;2.70;;
2386;SDS011;49473;50.772;8.768;2023-07-16T02:53:32;4.20;;;2.50;;
2386;SDS011;49473;50.772;8.768;2023-07-16T02:56:00;4.83;;;2.57;;
2386;SDS011;49473;50.772;8.768;2023-07-16T02:58:27;2.47;;;2.27;;
2386;SDS011;49473;50.772;8.768;2023-07-16T03:00:54;3.83;;;2.27;;
2386;SDS011;49473;50.772;8.768;2023-07-16T03:03:21;2.90;;;2.40;;
2386;SDS011;49473;50.772;8.768;2023-07-16T03:05:47;4.20;;;2.67;;
2386;SDS011;49473;50.772;8.768;2023-07-16T03:08:14;4.33;;;2.10;;
2386;SDS011;49473;50.772;8.768;2023-07-16T03:10:41;4.20;;;2.40;;
2386;SDS011;49473;50.772;8.768;2023-07-16T03:13:09;3.10;;;2.20;;
2386;SDS011;49473;50.772;8.768;2023-07-16T03:15:36;5.27;;;2.37;;
2386;SDS011;49473;50.772;8.768;2023-07-16T03:18:03;3.60;;;2.50;;
2386;SDS011;49473;50.772;8.768;2023-07-16T03:20:29;4.47;;;2.63;;
2386;SDS011;49473;50.772;8.768;2023-07-16T03:22:56;2.43;;;1.80;;
2386;SDS011;49473;50.772;8.768;2023-07-16T03:25:23;3.10;;;2.63;;
2386;SDS011;49473;50.772;8.768;2023-07-16T03:27:50;2.80;;;2.00;;
2386;SDS011;49473;50.772;8.768;2023-07-16T03:30:18;2.40;;;2.20;;
2386;SDS011;49473;50.772;8.768;2023-07-16T03:32:45;2.83;;;2.40;;
2386;SDS011;49473;50.772;8.768;2023-07-16T03:35:12;3.90;;;2.47;;
2386;SDS011;49473;50.772;8.768;2023-07-16T03:37:38;4.20;;;2.93;;
2386;SDS011;49473;50.772;8.768;2023-07-16T03:40:12;4.07;;;2.50;;
2386;SDS011;49473;50.772;8.768;2023-07-16T03:42:39;2.90;;;2.30;;
2386;SDS011;49473;50.772;8.768;2023-07-16T03:45:07;4.87;;;2.33;;
2386;SDS011;49473;50.772;8.768;2023-07-16T03:47:35;6.90;;;2.67;;
2386;SDS011;49473;50.772;8.768;2023-07-16T03:50:02;3.33;;;2.43;;
2386;SDS011;49473;50.772;8.768;2023-07-16T03:52:30;8.10;;;2.40;;
2386;SDS011;49473;50.772;8.768;2023-07-16T03:54:56;3.67;;;2.83;;
2386;SDS011;49473;50.772;8.768;2023-07-16T03:57:23;4.53;;;2.37;;
2386;SDS011;49473;50.772;8.768;2023-07-16T03:59:50;5.50;;;2.00;;
2386;SDS011;49473;50.772;8.768;2023-07-16T04:02:17;4.23;;;2.30;;
2386;SDS011;49473;50.772;8.768;2023-07-16T04:04:45;4.87;;;2.80;;
2386;SDS011;49473;50.772;8.768;2023-07-16T04:07:12;4.87;;;2.20;;
2386;SDS011;49473;50.772;8.768;2023-07-16T04:09:39;6.90;;;2.57;;
2386;SDS011;49473;50.772;8.768;2023-07-16T04:12:06;5.93;;;2.33;;
2386;SDS011;49473;50.772;8.768;2023-07-16T04:14:33;4.47;;;2.23;;
2386;SDS011;49473;50.772;8.768;2023-07-16T04:17:00;2.93;;;2.30;;
2386;SDS011;49473;50.772;8.768;2023-07-16T04:19:27;4.60;;;2.40;;
2386;SDS011;49473;50.772;8.768;2023-07-16T04:21:55;5.20;;;2.87;;
2386;SDS011;49473;50.772;8.768;2023-07-16T04:24:22;3.03;;;2.33;;
2386;SDS011;49473;50.772;8.768;2023-07-16T04:26:51;4.00;;;2.70;;
2386;SDS011;49473;50.772;8.768;2023-07-16T04:29:18;2.63;;;2.40;;
2386;SDS011;49473;50.772;8.768;2023-07-16T04:31:45;4.30;;;2.40;;
2386;SDS011;49473;50.772;8.768;2023-07-16T04:34:12;3.37;;;2.40;;
2386;SDS011;49473;50.772;8.768;2023-07-16T04:36:39;2.67;;;2.47;;
2386;SDS011;49473;50.772;8.768;2023-07-16T04:39:07;2.30;;;2.03;;
2386;SDS011;49473;50.772;8.768;2023-07-16T04:41:34;3.60;;;2.40;;
2386;SDS011;49473;50.772;8.768;2023-07-16T04:44:00;4.50;;;2.33;;
2386;SDS011;49473;50.772;8.768;2023-07-16T04:46:27;5.83;;;2.30;;
2386;SDS011;49473;50.772;8.768;2023-07-16T04:48:55;2.60;;;2.20;;
2386;SDS011;49473;50.772;8.768;2023-07-16T04:51:22;3.17;;;2.40;;
2386;SDS011;49473;50.772;8.768;2023-07-16T04:53:49;3.97;;;2.07;;
2386;SDS011;49473;50.772;8.768;2023-07-16T04:56:17;2.50;;;2.30;;
2386;SDS011;49473;50.772;8.768;2023-07-16T04:58:44;4.70;;;2.57;;
2386;SDS011;49473;50.772;8.768;2023-07-16T05:01:11;2.23;;;2.00;;
2386;SDS011;49473;50.772;8.768;2023-07-16T05:03:37;3.27;;;2.47;;
2386;SDS011;49473;50.772;8.768;2023-07-16T05:06:04;4.33;;;2.13;;
2386;SDS011;49473;50.772;8.768;2023-07-16T05:08:31;3.83;;;2.07;;
2386;SDS011;49473;50.772;8.768;2023-07-16T05:10:58;5.47;;;2.00;;
2386;SDS011;49473;50.772;8.768;2023-07-16T05:13:26;4.47;;;2.13;;
2386;SDS011;49473;50.772;8.768;2023-07-16T05:15:53;4.63;;;1.80;;
2386;SDS011;49473;50.772;8.768;2023-07-16T05:18:20;3.03;;;1.70;;
2386;SDS011;49473;50.772;8.768;2023-07-16T05:20:47;5.10;;;2.10;;
2386;SDS011;49473;50.772;8.768;2023-07-16T05:23:14;3.20;;;2.30;;
2386;SDS011;49473;50.772;8.768;2023-07-16T05:25:45;3.87;;;1.93;;
2386;SDS011;49473;50.772;8.768;2023-07-16T05:28:12;6.10;;;2.10;;
2386;SDS011;49473;50.772;8.768;2023-07-16T05:30:40;2.03;;;1.80;;
2386;SDS011;49473;50.772;8.768;2023-07-16T05:33:07;3.83;;;1.80;;
2386;SDS011;49473;50.772;8.768;2023-07-16T05:35:35;2.83;;;2.03;;
2386;SDS011;49473;50.772;8.768;2023-07-16T05:38:01;2.13;;;1.50;;
2386;SDS011;49473;50.772;8.768;2023-07-16T05:40:28;2.50;;;1.63;;
2386;SDS011;49473;50.772;8.768;2023-07-16T05:42:55;2.70;;;1.60;;
2386;SDS011;49473;50.772;8.768;2023-07-16T05:45:22;4.30;;;1.50;;
2386;SDS011;49473;50.772;8.768;2023-07-16T05:47:50;2.63;;;1.67;;
2386;SDS011;49473;50.772;8.768;2023-07-16T05:50:17;3.30;;;2.00;;
2386;SDS011;49473;50.772;8.768;2023-07-16T05:52:43;4.27;;;1.93;;
2386;SDS011;49473;50.772;8.768;2023-07-16T05:55:12;4.50;;;2.27;;
2386;SDS011;49473;50.772;8.768;2023-07-16T05:57:39;2.93;;;1.80;;
2386;SDS011;49473;50.772;8.768;2023-07-16T06:00:06;3.60;;;2.00;;
2386;SDS011;49473;50.772;8.768;2023-07-16T06:02:35;4.10;;;2.10;;
2386;SDS011;49473;50.772;8.768;2023-07-16T06:05:03;2.27;;;1.67;;
2386;SDS011;49473;50.772;8.768;2023-07-16T06:07:31;2.80;;;1.83;;
2386;SDS011;49473;50.772;8.768;2023-07-16T06:09:57;2.53;;;1.70;;
2386;SDS011;49473;50.772;8.768;2023-07-16T06:12:24;3.23;;;1.93;;
2386;SDS011;49473;50.772;8.768;2023-07-16T06:14:51;4.23;;;1.60;;
2386;SDS011;49473;50.772;8.768;2023-07-16T06:17:18;3.30;;;2.00;;
2386;SDS011;49473;50.772;8.768;2023-07-16T06:19:44;3.70;;;1.60;;
2386;SDS011;49473;50.772;8.768;2023-07-16T06:22:14;2.33;;;1.67;;
2386;SDS011;49473;50.772;8.768;2023-07-16T06:24:41;2.93;;;1.57;;
2386;SDS011;49473;50.772;8.768;2023-07-16T06:27:08;3.47;;;1.50;;
2386;SDS011;49473;50.772;8.768;2023-07-16T06:29:34;2.70;;;1.80;;
2386;SDS011;49473;50.772;8.768;2023-07-16T06:32:01;2.83;;;1.83;;
2386;SDS011;49473;50.772;8.768;2023-07-16T06:34:28;3.30;;;1.63;;
2386;SDS011;49473;50.772;8.768;2023-07-16T06:36:55;3.50;;;1.33;;
2386;SDS011;49473;50.772;8.768;2023-07-16T06:39:23;3.47;;;1.80;;
2386;SDS011;49473;50.772;8.768;2023-07-16T06:41:50;2.50;;;1.47;;
2386;SDS011;49473;50.772;8.768;2023-07-16T06:44:16;3.20;;;1.87;;
2386;SDS011;49473;50.772;8.768;2023-07-16T06:46:43;5.13;;;1.97;;
2386;SDS011;49473;50.772;8.768;2023-07-16T06:49:10;4.90;;;2.20;;
2386;SDS011;49473;50.772;8.768;2023-07-16T06:51:36;3.70;;;2.03;;
2386;SDS011;49473;50.772;8.768;2023-07-16T06:54:03;3.20;;;2.00;;
2386;SDS011;49473;50.772;8.768;2023-07-16T06:56:31;4.00;;;2.10;;
2386;SDS011;49473;50.772;8.768;2023-07-16T06:58:58;3.20;;;1.90;;
2386;SDS011;49473;50.772;8.768;2023-07-16T07:01:25;2.50;;;1.60;;
2386;SDS011;49473;50.772;8.768;2023-07-16T07:03:52;2.20;;;1.93;;
2386;SDS011;49473;50.772;8.768;2023-07-16T07:06:19;2.37;;;1.70;;
2386;SDS011;49473;50.772;8.768;2023-07-16T07:08:46;3.93;;;2.03;;
2386;SDS011;49473;50.772;8.768;2023-07-16T07:11:13;2.60;;;2.30;;
2386;SDS011;49473;50.772;8.768;2023-07-16T07:13:41;3.03;;;2.47;;
2386;SDS011;49473;50.772;8.768;2023-07-16T07:16:08;2.73;;;2.13;;
2386;SDS011;49473;50.772;8.768;2023-07-16T07:18:34;4.67;;;2.40;;
2386;SDS011;49473;50.772;8.768;2023-07-16T07:21:01;3.77;;;2.20;;
2386;SDS011;49473;50.772;8.768;2023-07-16T07:23:28;2.37;;;2.17;;
2386;SDS011;49473;50.772;8.768;2023-07-16T07:25:55;4.43;;;2.10;;
2386;SDS011;49473;50.772;8.768;2023-07-16T07:28:21;5.00;;;2.20;;
2386;SDS011;49473;50.772;8.768;2023-07-16T07:30:49;3.33;;;2.13;;
2386;SDS011;49473;50.772;8.768;2023-07-16T07:33:16;3.90;;;2.60;;
2386;SDS011;49473;50.772;8.768;2023-07-16T07:35:43;5.07;;;2.10;;
2386;SDS011;49473;50.772;8.768;2023-07-16T07:38:09;2.87;;;1.83;;
2386;SDS011;49473;50.772;8.768;2023-07-16T07:40:36;5.00;;;2.30;;
2386;SDS011;49473;50.772;8.768;2023-07-16T07:43:03;6.90;;;2.33;;
2386;SDS011;49473;50.772;8.768;2023-07-16T07:45:30;6.33;;;2.60;;
2386;SDS011;49473;50.772;8.768;2023-07-16T07:47:58;4.37;;;2.87;;
2386;SDS011;49473;50.772;8.768;2023-07-16T07:50:24;3.00;;;2.43;;
2386;SDS011;49473;50.772;8.768;2023-07-16T07:52:51;5.43;;;2.20;;
2386;SDS011;49473;50.772;8.768;2023-07-16T07:55:18;3.67;;;2.07;;
2386;SDS011;49473;50.772;8.768;2023-07-16T07:57:45;2.13;;;1.93;;
2386;SDS011;49473;50.772;8.768;2023-07-16T08:00:12;2.40;;;2.20;;
2386;SDS011;49473;50.772;8.768;2023-07-16T08:02:40;2.67;;;1.97;;
2386;SDS011;49473;50.772;8.768;2023-07-16T08:05:08;4.60;;;2.40;;
2386;SDS011;49473;50.772;8.768;2023-07-16T08:07:35;2.90;;;2.00;;
2386;SDS011;49473;50.772;8.768;2023-07-16T08:10:01;3.30;;;2.13;;
2386;SDS011;49473;50.772;8.768;2023-07-16T08:12:29;4.27;;;2.10;;
2386;SDS011;49473;50.772;8.768;2023-07-16T08:14:55;3.93;;;2.53;;
2386;SDS011;49473;50.772;8.768;2023-07-16T08:17:22;3.87;;;2.50;;
2386;SDS011;49473;50.772;8.768;2023-07-16T08:19:49;3.17;;;2.37;;
2386;SDS011;49473;50.772;8.768;2023-07-16T08:22:17;4.43;;;2.60;;
2386;SDS011;49473;50.772;8.768;2023-07-16T08:24:44;3.57;;;2.47;;
2386;SDS011;49473;50.772;8.768;2023-07-16T08:27:10;2.43;;;2.20;;
2386;SDS011;49473;50.772;8.768;2023-07-16T08:29:37;2.40;;;2.20;;
2386;SDS011;49473;50.772;8.768;2023-07-16T08:32:04;4.33;;;2.30;;
2386;SDS011;49473;50.772;8.768;2023-07-16T08:34:31;3.10;;;2.40;;
2386;SDS011;49473;50.772;8.768;2023-07-16T08:36:57;3.83;;;2.50;;
2386;SDS011;49473;50.772;8.768;2023-07-16T08:39:25;2.60;;;2.40;;
2386;SDS011;49473;50.772;8.768;2023-07-16T08:41:53;4.77;;;2.10;;
2386;SDS011;49473;50.772;8.768;2023-07-16T08:44:20;2.47;;;2.10;;
2386;SDS011;49473;50.772;8.768;2023-07-16T08:46:47;2.40;;;1.83;;
2386;SDS011;49473;50.772;8.768;2023-07-16T08:49:14;2.20;;;2.00;;
2386;SDS011;49473;50.772;8.768;2023-07-16T08:51:44;2.90;;;2.10;;
2386;SDS011;49473;50.772;8.768;2023-07-16T08:54:13;2.50;;;2.00;;
2386;SDS011;49473;50.772;8.768;2023-07-16T08:56:42;2.67;;;2.20;;
2386;SDS011;49473;50.772;8.768;2023-07-16T08:59:10;2.90;;;2.27;;
2386;SDS011;49473;50.772;8.768;2023-07-16T09:01:37;3.27;;;2.27;;
2386;SDS011;49473;50.772;8.768;2023-07-16T09:04:04;2.23;;;2.07;;
2386;SDS011;49473;50.772;8.768;2023-07-16T09:06:30;3.63;;;1.87;;
2386;SDS011;49473;50.772;8.768;2023-07-16T09:08:57;3.60;;;2.60;;
2386;SDS011;49473;50.772;8.768;2023-07-16T09:11:24;4.60;;;2.20;;
2386;SDS011;49473;50.772;8.768;2023-07-16T09:13:53;2.60;;;2.17;;
2386;SDS011;49473;50.772;8.768;2023-07-16T09:16:20;5.80;;;2.57;;
2386;SDS011;49473;50.772;8.768;2023-07-16T09:18:47;3.30;;;2.53;;
2386;SDS011;49473;50.772;8.768;2023-07-16T09:21:13;3.03;;;2.53;;
2386;SDS011;49473;50.772;8.768;2023-07-16T09:23:41;4.60;;;2.57;;
2386;SDS011;49473;50.772;8.768;2023-07-16T09:26:08;2.73;;;2.33;;
2386;SDS011;49473;50.772;8.768;2023-07-16T09:28:35;4.00;;;2.00;;
2386;SDS011;49473;50.772;8.768;2023-07-16T09:31:06;2.70;;;2.27;;
2386;SDS011;49473;50.772;8.768;2023-07-16T09:33:33;4.60;;;2.30;;
2386;SDS011;49473;50.772;8.768;2023-07-16T09:36:00;3.07;;;2.20;;
2386;SDS011;49473;50.772;8.768;2023-07-16T09:38:29;3.17;;;2.47;;
2386;SDS011;49473;50.772;8.768;2023-07-16T09:40:57;2.70;;;2.50;;
2386;SDS011;49473;50.772;8.768;2023-07-16T09:43:25;4.70;;;4.30;;
2386;SDS011;49473;50.772;8.768;2023-07-16T09:45:52;3.00;;;2.77;;
2386;SDS011;49473;50.772;8.768;2023-07-16T09:48:20;5.97;;;2.70;;
2386;SDS011;49473;50.772;8.768;2023-07-16T09:50:49;2.83;;;2.63;;
2386;SDS011;49473;50.772;8.768;2023-07-16T09:53:18;2.17;;;2.00;;
2386;SDS011;49473;50.772;8.768;2023-07-16T09:55:46;2.80;;;2.33;;
2386;SDS011;49473;50.772;8.768;2023-07-16T09:58:14;3.03;;;2.60;;
2386;SDS011;49473;50.772;8.768;2023-07-16T10:00:45;3.67;;;2.47;;
2386;SDS011;49473;50.772;8.768;2023-07-16T10:03:14;2.50;;;2.27;;
2386;SDS011;49473;50.772;8.768;2023-07-16T10:05:43;2.70;;;2.50;;
2386;SDS011;49473;50.772;8.768;2023-07-16T10:08:16;2.13;;;2.03;;
2386;SDS011;49473;50.772;8.768;2023-07-16T10:10:44;2.67;;;1.87;;
2386;SDS011;49473;50.772;8.768;2023-07-16T10:13:14;2.80;;;2.43;;
2386;SDS011;49473;50.772;8.768;2023-07-16T10:15:50;2.50;;;2.33;;
2386;SDS011;49473;50.772;8.768;2023-07-16T10:18:25;2.67;;;2.30;;
2386;SDS011;49473;50.772;8.768;2023-07-16T10:20:59;4.10;;;2.30;;
2386;SDS011;49473;50.772;8.768;2023-07-16T10:23:35;3.00;;;2.40;;
2386;SDS011;49473;50.772;8.768;2023-07-16T10:26:03;2.53;;;2.33;;
2386;SDS011;49473;50.772;8.768;2023-07-16T10:28:31;5.20;;;3.20;;
2386;SDS011;49473;50.772;8.768;2023-07-16T10:30:58;2.80;;;2.43;;
2386;SDS011;49473;50.772;8.768;2023-07-16T10:33:25;3.17;;;2.37;;
2386;SDS011;49473;50.772;8.768;2023-07-16T10:35:52;2.57;;;2.10;;
2386;SDS011;49473;50.772;8.768;2023-07-16T10:38:20;3.00;;;2.80;;
2386;SDS011;49473;50.772;8.768;2023-07-16T10:40:46;3.23;;;2.70;;
2386;SDS011;49473;50.772;8.768;2023-07-16T10:43:13;2.73;;;2.43;;
2386;SDS011;49473;50.772;8.768;2023-07-16T10:45:41;2.80;;;2.50;;
2386;SDS011;49473;50.772;8.768;2023-07-16T10:48:10;2.93;;;2.60;;
2386;SDS011;49473;50.772;8.768;2023-07-16T10:50:37;2.57;;;2.37;;
2386;SDS011;49473;50.772;8.768;2023-07-16T10:53:03;2.57;;;2.37;;
2386;SDS011;49473;50.772;8.768;2023-07-16T10:55:31;3.03;;;2.60;;
2386;SDS011;49473;50.772;8.768;2023-07-16T10:58:03;3.63;;;2.50;;
2386;SDS011;49473;50.772;8.768;2023-07-16T11:00:31;3.33;;;2.80;;
2386;SDS011;49473;50.772;8.768;2023-07-16T11:03:02;2.77;;;2.53;;
2386;SDS011;49473;50.772;8.768;2023-07-16T11:05:29;3.27;;;2.97;;
2386;SDS011;49473;50.772;8.768;2023-07-16T11:07:56;3.23;;;3.03;;
2386;SDS011;49473;50.772;8.768;2023-07-16T11:10:23;3.40;;;3.17;;
2386;SDS011;49473;50.772;8.768;2023-07-16T11:12:52;3.80;;;2.40;;
2386;SDS011;49473;50.772;8.768;2023-07-16T11:15:29;4.40;;;2.83;;
2386;SDS011;49473;50.772;8.768;2023-07-16T11:17:56;4.03;;;2.60;;
2386;SDS011;49473;50.772;8.768;2023-07-16T11:20:23;3.23;;;2.70;;
2386;SDS011;49473;50.772;8.768;2023-07-16T11:22:50;4.00;;;3.40;;
2386;SDS011;49473;50.772;8.768;2023-07-16T11:25:17;3.90;;;2.97;;
2386;SDS011;49473;50.772;8.768;2023-07-16T11:27:45;3.73;;;3.30;;
2386;SDS011;49473;50.772;8.768;2023-07-16T11:30:13;2.97;;;2.73;;
2386;SDS011;49473;50.772;8.768;2023-07-16T11:32:41;3.10;;;2.87;;
2386;SDS011;49473;50.772;8.768;2023-07-16T11:35:11;2.93;;;2.50;;
2386;SDS011;49473;50.772;8.768;2023-07-16T11:37:42;4.03;;;3.07;;
2386;SDS011;49473;50.772;8.768;2023-07-16T11:40:10;3.23;;;2.93;;
2386;SDS011;49473;50.772;8.768;2023-07-16T11:42:40;3.93;;;3.50;;
2386;SDS011;49473;50.772;8.768;2023-07-16T11:45:16;3.50;;;3.20;;
2386;SDS011;49473;50.772;8.768;2023-07-16T11:47:44;3.37;;;2.97;;
2386;SDS011;49473;50.772;8.768;2023-07-16T11:50:11;3.57;;;3.27;;
2386;SDS011;49473;50.772;8.768;2023-07-16T11:52:39;3.03;;;2.80;;
2386;SDS011;49473;50.772;8.768;2023-07-16T11:55:06;3.20;;;2.90;;
2386;SDS011;49473;50.772;8.768;2023-07-16T11:57:34;3.63;;;3.27;;
2386;SDS011;49473;50.772;8.768;2023-07-16T12:00:01;3.83;;;2.43;;
2386;SDS011;49473;50.772;8.768;2023-07-16T12:02:30;3.03;;;2.83;;
2386;SDS011;49473;50.772;8.768;2023-07-16T12:04:56;2.80;;;2.60;;
2386;SDS011;49473;50.772;8.768;2023-07-16T12:07:30;3.73;;;2.50;;
2386;SDS011;49473;50.772;8.768;2023-07-16T12:09:58;3.47;;;2.37;;
2386;SDS011;49473;50.772;8.768;2023-07-16T12:12:25;3.10;;;2.80;;
2386;SDS011;49473;50.772;8.768;2023-07-16T12:14:52;5.50;;;2.83;;
2386;SDS011;49473;50.772;8.768;2023-07-16T12:17:18;2.63;;;2.43;;
2386;SDS011;49473;50.772;8.768;2023-07-16T12:19:46;2.50;;;2.30;;
2386;SDS011;49473;50.772;8.768;2023-07-16T12:22:13;3.87;;;2.70;;
2386;SDS011;49473;50.772;8.768;2023-07-16T12:24:43;2.80;;;2.40;;
2386;SDS011;49473;50.772;8.768;2023-07-16T12:27:10;4.10;;;3.10;;
2386;SDS011;49473;50.772;8.768;2023-07-16T12:29:36;3.00;;;2.73;;
2386;SDS011;49473;50.772;8.768;2023-07-16T12:32:03;3.33;;;2.63;;
2386;SDS011;49473;50.772;8.768;2023-07-16T12:34:31;3.20;;;2.90;;
2386;SDS011;49473;50.772;8.768;2023-07-16T12:36:59;2.80;;;2.60;;
2386;SDS011;49473;50.772;8.768;2023-07-16T12:39:25;3.93;;;3.07;;
2386;SDS011;49473;50.772;8.768;2023-07-16T12:41:52;2.80;;;2.40;;
2386;SDS011;49473;50.772;8.768;2023-07-16T12:44:19;3.60;;;3.00;;
2386;SDS011;49473;50.772;8.768;2023-07-16T12:46:45;4.43;;;3.00;;
2386;SDS011;49473;50.772;8.768;2023-07-16T12:49:12;3.13;;;2.67;;
2386;SDS011;49473;50.772;8.768;2023-07-16T12:51:39;2.60;;;2.40;;
2386;SDS011;49473;50.772;8.768;2023-07-16T12:54:07;3.30;;;2.63;;
2386;SDS011;49473;50.772;8.768;2023-07-16T12:56:34;3.00;;;2.70;;
2386;SDS011;49473;50.772;8.768;2023-07-16T12:59:00;3.70;;;3.30;;
2386;SDS011;49473;50.772;8.768;2023-07-16T13:01:27;3.00;;;2.80;;
2386;SDS011;49473;50.772;8.768;2023-07-16T13:03:55;2.80;;;2.60;;
2386;SDS011;49473;50.772;8.768;2023-07-16T13:06:22;5.73;;;3.10;;
2386;SDS011;49473;50.772;8.768;2023-07-16T13:08:49;2.60;;;2.43;;
2386;SDS011;49473;50.772;8.768;2023-07-16T13:11:17;4.03;;;3.27;;
2386;SDS011;49473;50.772;8.768;2023-07-16T13:13:43;3.90;;;2.90;;
2386;SDS011;49473;50.772;8.768;2023-07-16T13:16:10;3.20;;;2.60;;
2386;SDS011;49473;50.772;8.768;2023-07-16T13:18:37;3.47;;;3.17;;
2386;SDS011;49473;50.772;8.768;2023-07-16T13:21:04;2.80;;;2.53;;
2386;SDS011;49473;50.772;8.768;2023-07-16T13:23:31;3.13;;;2.93;;
2386;SDS011;49473;50.772;8.768;2023-07-16T13:25:57;3.30;;;2.90;;
2386;SDS011;49473;50.772;8.768;2023-07-16T13:28:26;3.27;;;3.00;;
2386;SDS011;49473;50.772;8.768;2023-07-16T13:30:53;3.33;;;3.13;;
2386;SDS011;49473;50.772;8.768;2023-07-16T13:33:20;3.60;;;3.30;;
2386;SDS011;49473;50.772;8.768;2023-07-16T13:35:48;4.00;;;3.40;;
2386;SDS011;49473;50.772;8.768;2023-07-16T13:38:14;3.60;;;3.30;;
2386;SDS011;49473;50.772;8.768;2023-07-16T13:40:41;3.60;;;3.30;;
2386;SDS011;49473;50.772;8.768;2023-07-16T13:43:08;3.40;;;2.73;;
2386;SDS011;49473;50.772;8.768;2023-07-16T13:45:36;3.17;;;2.97;;
2386;SDS011;49473;50.772;8.768;2023-07-16T13:48:04;3.93;;;3.10;;
2386;SDS011;49473;50.772;8.768;2023-07-16T13:50:31;4.13;;;3.00;;
2386;SDS011;49473;50.772;8.768;2023-07-16T13:52:58;3.23;;;2.93;;
2386;SDS011;49473;50.772;8.768;2023-07-16T13:55:26;3.47;;;2.67;;
2386;SDS011;49473;50.772;8.768;2023-07-16T13:57:53;3.43;;;3.10;;
2386;SDS011;49473;50.772;8.768;2023-07-16T14:00:20;3.53;;;3.23;;
2386;SDS011;49473;50.772;8.768;2023-07-16T14:02:49;3.30;;;3.00;;
2386;SDS011;49473;50.772;8.768;2023-07-16T14:05:15;3.70;;;3.40;;
2386;SDS011;49473;50.772;8.768;2023-07-16T14:07:42;4.10;;;3.70;;
2386;SDS011;49473;50.772;8.768;2023-07-16T14:10:09;4.43;;;3.10;;
2386;SDS011;49473;50.772;8.768;2023-07-16T14:12:36;3.77;;;3.47;;
2386;SDS011;49473;50.772;8.768;2023-07-16T14:15:03;3.70;;;3.20;;
2386;SDS011;49473;50.772;8.768;2023-07-16T14:17:30;3.90;;;3.60;;
2386;SDS011;49473;50.772;8.768;2023-07-16T14:19:58;4.17;;;3.70;;
2386;SDS011;49473;50.772;8.768;2023-07-16T14:22:25;4.60;;;3.60;;
2386;SDS011;49473;50.772;8.768;2023-07-16T14:24:52;3.37;;;3.07;;
2386;SDS011;49473;50.772;8.768;2023-07-16T14:27:19;4.70;;;4.00;;
2386;SDS011;49473;50.772;8.768;2023-07-16T14:29:46;3.80;;;3.50;;
2386;SDS011;49473;50.772;8.768;2023-07-16T14:32:13;7.00;;;3.90;;
2386;SDS011;49473;50.772;8.768;2023-07-16T14:34:39;3.80;;;3.40;;
2386;SDS011;49473;50.772;8.768;2023-07-16T14:37:08;4.80;;;4.27;;
2386;SDS011;49473;50.772;8.768;2023-07-16T14:39:34;4.17;;;3.70;;
2386;SDS011;49473;50.772;8.768;2023-07-16T14:42:01;4.33;;;3.93;;
2386;SDS011;49473;50.772;8.768;2023-07-16T14:44:29;4.03;;;3.63;;
2386;SDS011;49473;50.772;8.768;2023-07-16T14:46:56;3.93;;;3.20;;
2386;SDS011;49473;50.772;8.768;2023-07-16T14:49:23;5.37;;;4.00;;
2386;SDS011;49473;50.772;8.768;2023-07-16T14:51:49;4.00;;;3.80;;
2386;SDS011;49473;50.772;8.768;2023-07-16T14:54:18;6.57;;;3.87;;
2386;SDS011;49473;50.772;8.768;2023-07-16T14:56:44;4.53;;;4.13;;
2386;SDS011;49473;50.772;8.768;2023-07-16T14:59:11;4.60;;;4.20;;
2386;SDS011;49473;50.772;8.768;2023-07-16T15:01:38;4.00;;;3.70;;